Calgary International Airport
CYYC : rendu visible

Aérodrome :











RETROUVEZ-NOUS SUR...

 
LOGIN :

S'inscrire | Disclaimer

   EN    FR    IT 

 









Légende :    VFR   VFR Marginal   IFR   IFR Intensif   IFR Très Intensif
Visi : 
Plafond : 
>= 8 km
>= 3000ft
5 à 8 km
1000 à 3000 ft
1500m à 5 km
500 à 1000 ft
800 à 1500m
200 à 500 ft
< 800m
< 200 ft
Symboles :   Orages  Brouillard  Fortes neiges  Fortes précipitations  Vent > 20 kt






- Altitude de l'aérodrome : 3557 ft
- Code IATA : YYC


CYYC - Calgary International

DERNIER METAR :
  • 222200Z 25004KT 200V280 40SM FEW120 FEW230 10/M07 A2983 RMK AC1CI1 CI TR SLP137 DENSITY ALT 4000FT

METARs EXPIRÉS :
  • 222100Z 26007KT 40SM FEW140 10/M06 A2984 RMK AC1 AC TR SLP140 DENSITY ALT 4000FT
  • 222000Z 28011KT 40SM FEW150 10/M06 A2985 RMK AC1 AC TR SLP139 DENSITY ALT 3900FT

TAF TAF CYYC
Valide du 22 à 21h jusqu'au 23 à 18h UTC


222038Z 2221/2318 28012KT P6SM FEW140
FM230300 27015KT P6SM SCT140 BKN240
FM231200 27012KT P6SM SCT240 RMK NXT FCST BY 230000Z



MET'MAP, la Météo Aéronautique d'un coup d'oeil ! - Copyright ORBIFLY Décembre 2007 - Disclaimer

ORBIFLY MET'MAP TEAM :

Programmation & Développement : Alexandra Zaïnal
Conception & Développement : Baudouin d'Aumeries
Co-Programmation & Développement : Marc-Olivier Méhu
Soutien technique & logistique : Manuel Goepfert

Contact : metmap@orbifly.com




SOURCES & CREDITS :

   NOAA       Earth
Advisory